Valencia, Spain

9:21 PM CET op 25 februari 2017 (GMT +0100)
Manises | | Change Station

Hoogte 203 ft 39.50 °N, 0.47 °W | Updated 21 minutes ago

Mostly Cloudy
Merendeels bewolkt
55 °F
Voelt als 55 °F
N
4
Wind Variabel Wind van ONO

Vandaag
Hoog -- | Laag -- °F
--% Kans op neerslag
Gisteren
Hoog -- | Laag -- °F
Precip. -- inches
Druk 30.15 inches
Zicht 6.2 mijlen
Wolken Merendeels bewolkt 2500 ft
Dauwpunt 52 °F
Vochtigheid 88%
Neerslag 0.00 inches
Dikte sneeuw Niet beschikbaar.
7:40 AM 6:49 PM
Afnemende halvemaan, 1% visible
METAR LEVC 252000Z 07003KT 9999 BKN025 13/11 Q1021 NOSIG
Druk 30.15 inches
Zicht 6.2 mijlen
Wolken Merendeels bewolkt 2500 ft
Dauwpunt 52 °F
Vochtigheid 88%
Neerslag 0.00 inches
Dikte sneeuw Niet beschikbaar.
7:40 AM 6:49 PM
Afnemende halvemaan, 1% visible
METAR LEVC 252000Z 07003KT 9999 BKN025 13/11 Q1021 NOSIG

Get Your Daily Forecast Email!

Thanks for signing up!

Be on the lookout for a verification email in your inbox.

You'll start receiving the daily forecast at 8 AM.

×

10-Day Weather Forecast

×

Almanac

Astronomie

Feb. 25, 2017 Opkomst Ondergang
Werkelijke tijd
Burgerlijke schemering
Nautische schemering
Astronomische schemering
Maan
Golflengte van het zichtbare licht
Daglengte
Tomorrow will be .
, % of the Moon is Illuminated

Extremen vandaag

Country Highs Country Lows

Community

WunderPhotos

Upload Photos

1,962,540 foto’s ge-upload!

WunderBlog® & News

Nearby

Luchtkwaliteit

  Luchtkwaliteit LK-index Verontreinigende stof
Not available.

Dikte sneeuw

Station Depth Geometrische hoogte

Aardbevingen

Stad Distance Mag. Time & Date
Minimum magnitude displayed is 2.5.

Watertemperatuur langs de kust

Plaats Temperatuur

Stations

Nabije weerstations

Locatie station Temp. Gevoelstemperatuur Dauwpunt Vochtigheid Wind Precip. Hoogte Geactualiseerd Type